FMCZ

Dzaoudzi Pamandzi International Airport

Dzaoudzi, Mayotte
METAR FMCZ 221500Z AUTO VRB02KT CAVOK 26/21 Q1015 NOSIG
Observed Flight Rules
Sep-22 @ 15:00 UTC (35 minutes ago) Visual Flight Rules
Wind Visibility Clouds
Variable at 2 knots 10,000+ meters
Temperatures Readings
Current 26°C / 79°F
Dewpoint 21°C / 70°F
Humidity 74%
Altimeter 29.97" Hg
Pressure 1015 hPa
Elevation 7
METAR FMCZ 221500Z AUTO VRB02KT CAVOK 26/21 Q1015 NOSIG
Observed Flight Rules
Sep-22 @ 15:00 UTC
(35 minutes ago)
VFR
Wind Visibility
Variable at 2 knots 10,000+ meters
Clouds
Temperature Dewpoint
26°C / 79°F 21°C / 70°F
Humidity Altimeter Pressure
74% 29.97" Hg 1015 hPa